createdAt,value
2022-07-29T00:00:48.557Z,20.36
2022-07-29T00:01:48.531Z,20.42
2022-07-29T00:02:48.649Z,20.42
2022-07-29T00:03:48.616Z,20.29
2022-07-29T00:04:48.491Z,20.37
2022-07-29T00:05:48.502Z,20.34
2022-07-29T00:06:48.489Z,20.33
2022-07-29T00:07:48.458Z,20.30
2022-07-29T00:08:48.524Z,20.33
2022-07-29T00:09:52.023Z,20.23
2022-07-29T00:10:48.425Z,20.22
2022-07-29T00:11:48.426Z,20.27
2022-07-29T00:12:48.406Z,20.17
2022-07-29T00:13:51.047Z,20.18
2022-07-29T00:14:48.426Z,20.18
2022-07-29T00:15:48.373Z,20.22
2022-07-29T00:16:48.438Z,20.14
2022-07-29T00:17:48.356Z,20.19
2022-07-29T00:18:48.353Z,20.17
2022-07-29T00:19:48.378Z,20.15
2022-07-29T00:20:48.317Z,20.11
2022-07-29T00:21:48.305Z,20.11
2022-07-29T00:22:48.291Z,20.12
2022-07-29T00:23:48.290Z,20.00
2022-07-29T00:24:48.307Z,20.08
2022-07-29T00:25:48.264Z,20.05
2022-07-29T00:26:48.252Z,20.02
2022-07-29T00:27:48.271Z,20.07
2022-07-29T00:28:48.235Z,20.02
2022-07-29T00:29:48.220Z,19.99
2022-07-29T00:30:48.212Z,20.02
2022-07-29T00:31:48.263Z,19.90
2022-07-29T00:32:48.225Z,19.90
2022-07-29T00:33:48.183Z,19.94
2022-07-29T00:34:48.173Z,19.86
2022-07-29T00:35:48.159Z,19.97
2022-07-29T00:36:48.147Z,19.93
2022-07-29T00:37:48.165Z,19.92
2022-07-29T00:38:48.127Z,19.86
2022-07-29T00:39:48.109Z,19.78
2022-07-29T00:40:48.103Z,19.87
2022-07-29T00:41:48.095Z,19.84
2022-07-29T00:42:48.112Z,19.78
2022-07-29T00:43:48.071Z,19.71
2022-07-29T00:44:48.063Z,19.77
2022-07-29T00:45:48.048Z,19.78
2022-07-29T00:46:48.102Z,19.77
2022-07-29T00:47:48.052Z,19.75
2022-07-29T00:48:48.066Z,19.71
2022-07-29T00:49:47.998Z,19.70
2022-07-29T00:50:47.993Z,19.64
2022-07-29T00:51:47.985Z,19.63
2022-07-29T00:52:47.999Z,19.71
2022-07-29T00:53:47.963Z,19.64
2022-07-29T00:54:47.955Z,19.64
2022-07-29T00:55:47.939Z,19.63
2022-07-29T00:56:47.930Z,19.54
2022-07-29T00:57:47.948Z,19.67
2022-07-29T00:58:47.909Z,19.68
2022-07-29T00:59:47.900Z,19.62
2022-07-29T01:00:47.898Z,19.60
2022-07-29T01:01:47.971Z,19.59
2022-07-29T01:02:47.899Z,19.53
2022-07-29T01:03:47.858Z,19.56
2022-07-29T01:04:47.851Z,19.54
2022-07-29T01:05:49.900Z,19.50
2022-07-29T01:06:47.823Z,19.54
2022-07-29T01:07:47.840Z,19.53
2022-07-29T01:08:47.817Z,19.56
2022-07-29T01:09:47.791Z,19.44
2022-07-29T01:10:47.774Z,19.39
2022-07-29T01:11:47.767Z,19.42
2022-07-29T01:12:47.783Z,19.44
2022-07-29T01:13:47.746Z,19.44
2022-07-29T01:14:47.733Z,19.32
2022-07-29T01:15:48.971Z,19.47
2022-07-29T01:16:47.750Z,19.42
2022-07-29T01:17:52.699Z,19.41
2022-07-29T01:18:48.685Z,19.34
2022-07-29T01:19:47.687Z,19.34
2022-07-29T01:20:47.664Z,19.45
2022-07-29T01:21:47.656Z,19.39
2022-07-29T01:22:47.803Z,19.34
2022-07-29T01:23:47.648Z,19.37
2022-07-29T01:24:47.621Z,19.19
2022-07-29T01:25:53.118Z,19.31
2022-07-29T01:26:48.605Z,19.31
2022-07-29T01:27:47.991Z,19.23
2022-07-29T01:28:47.586Z,19.26
2022-07-29T01:29:47.570Z,19.22
2022-07-29T01:30:47.563Z,19.20
2022-07-29T01:31:59.400Z,19.22
2022-07-29T01:32:48.601Z,19.23
2022-07-29T01:33:47.528Z,19.20
2022-07-29T01:34:47.512Z,19.17
2022-07-29T01:35:47.514Z,19.20
2022-07-29T01:36:47.492Z,19.12
2022-07-29T01:37:47.532Z,19.05
2022-07-29T01:38:47.478Z,19.15
2022-07-29T01:39:47.483Z,19.12
2022-07-29T01:40:47.456Z,19.07
2022-07-29T01:41:47.435Z,19.08
2022-07-29T01:42:47.490Z,19.04
2022-07-29T01:43:47.423Z,19.09
2022-07-29T01:44:47.401Z,19.01
2022-07-29T01:45:47.393Z,19.08
2022-07-29T01:46:47.452Z,19.05
2022-07-29T01:47:47.390Z,18.98
2022-07-29T01:48:47.453Z,18.96
2022-07-29T01:49:47.348Z,18.97
2022-07-29T01:50:47.356Z,19.04
2022-07-29T01:51:47.324Z,19.01
2022-07-29T01:52:47.328Z,18.91
2022-07-29T01:53:47.341Z,18.89
2022-07-29T01:54:47.291Z,18.86
2022-07-29T01:55:47.294Z,18.91
2022-07-29T01:56:47.269Z,18.94
2022-07-29T01:57:47.260Z,18.88
2022-07-29T01:58:47.283Z,18.82
2022-07-29T01:59:47.239Z,18.81
2022-07-29T02:00:47.233Z,18.81
2022-07-29T02:01:47.289Z,18.83
2022-07-29T02:02:47.243Z,18.85
2022-07-29T02:03:47.229Z,18.86
2022-07-29T02:04:47.203Z,18.86
2022-07-29T02:05:47.177Z,18.81
2022-07-29T02:06:47.164Z,18.78
2022-07-29T02:07:47.329Z,18.78
2022-07-29T02:08:47.141Z,18.78
2022-07-29T02:09:47.130Z,18.81
2022-07-29T02:10:47.115Z,18.76
2022-07-29T02:11:47.136Z,18.71
2022-07-29T02:12:50.920Z,18.74
2022-07-29T02:13:47.091Z,18.70
2022-07-29T02:14:47.078Z,18.74
2022-07-29T02:15:47.122Z,18.64
2022-07-29T02:16:47.092Z,18.68
2022-07-29T02:17:47.047Z,18.71
2022-07-29T02:18:47.030Z,18.66
2022-07-29T02:19:47.021Z,18.63
2022-07-29T02:20:47.020Z,18.67
2022-07-29T02:21:47.041Z,18.64
2022-07-29T02:22:46.997Z,18.66
2022-07-29T02:23:50.879Z,18.54
2022-07-29T02:24:46.996Z,18.61
2022-07-29T02:25:46.960Z,18.58
2022-07-29T02:26:46.942Z,18.57
2022-07-29T02:27:46.943Z,18.57
2022-07-29T02:28:46.921Z,18.54
2022-07-29T02:29:47.082Z,18.49
2022-07-29T02:30:46.955Z,18.52
2022-07-29T02:31:46.892Z,18.45
2022-07-29T02:32:47.064Z,18.49
2022-07-29T02:33:46.873Z,18.43
2022-07-29T02:34:46.877Z,18.49
2022-07-29T02:35:46.886Z,18.45
2022-07-29T02:36:46.837Z,18.45
2022-07-29T02:37:46.824Z,18.42
2022-07-29T02:38:46.818Z,18.42
2022-07-29T02:39:46.836Z,18.42
2022-07-29T02:40:46.798Z,18.34
2022-07-29T02:41:46.791Z,18.45
2022-07-29T02:42:46.782Z,18.49
2022-07-29T02:43:46.765Z,18.31
2022-07-29T02:44:46.781Z,18.28
2022-07-29T02:45:46.745Z,18.52
2022-07-29T02:46:47.805Z,18.49
2022-07-29T02:47:46.724Z,18.38
2022-07-29T02:48:46.790Z,18.33
2022-07-29T02:49:46.735Z,18.30
2022-07-29T02:50:46.688Z,18.36
2022-07-29T02:51:46.677Z,18.38
2022-07-29T02:52:46.669Z,18.42
2022-07-29T02:53:46.664Z,18.33
2022-07-29T02:54:46.673Z,18.39
2022-07-29T02:55:46.639Z,18.31
2022-07-29T02:56:46.628Z,18.33
2022-07-29T02:57:55.208Z,18.38
2022-07-29T02:58:47.622Z,18.31
2022-07-29T02:59:46.634Z,18.33
2022-07-29T03:00:46.585Z,18.24
2022-07-29T03:01:46.623Z,18.26
2022-07-29T03:02:46.573Z,18.26
2022-07-29T03:03:46.554Z,18.23
2022-07-29T03:04:46.623Z,18.31
2022-07-29T03:05:46.689Z,18.27
2022-07-29T03:06:46.534Z,18.33
2022-07-29T03:07:46.503Z,18.30
2022-07-29T03:08:46.510Z,18.26
2022-07-29T03:09:46.488Z,18.28
2022-07-29T03:10:46.480Z,18.23
2022-07-29T03:11:50.700Z,18.27
2022-07-29T03:12:46.451Z,18.26
2022-07-29T03:13:46.444Z,18.24
2022-07-29T03:14:46.451Z,18.28
2022-07-29T03:15:46.507Z,18.18
2022-07-29T03:16:46.426Z,18.26
2022-07-29T03:17:46.401Z,18.15
2022-07-29T03:18:46.394Z,18.18
2022-07-29T03:19:46.405Z,18.13
2022-07-29T03:20:46.368Z,18.20
2022-07-29T03:21:46.359Z,18.12
2022-07-29T03:22:46.348Z,18.13
2022-07-29T03:23:46.335Z,18.11
2022-07-29T03:24:46.359Z,18.17
2022-07-29T03:25:46.323Z,18.15
2022-07-29T03:26:46.308Z,18.17
2022-07-29T03:27:46.300Z,18.13
2022-07-29T03:28:46.287Z,18.20
2022-07-29T03:29:50.575Z,18.17
2022-07-29T03:30:46.323Z,18.18
2022-07-29T03:31:46.300Z,18.03
2022-07-29T03:32:46.255Z,18.09
2022-07-29T03:33:46.260Z,18.12
2022-07-29T03:34:46.233Z,18.13
2022-07-29T03:35:46.205Z,18.09
2022-07-29T03:36:46.203Z,18.03
2022-07-29T03:37:46.219Z,18.11
2022-07-29T03:38:46.183Z,18.11
2022-07-29T03:39:46.174Z,18.03
2022-07-29T03:40:46.162Z,18.02
2022-07-29T03:41:46.145Z,18.03
2022-07-29T03:42:46.169Z,18.06
2022-07-29T03:43:49.511Z,18.06
2022-07-29T03:44:46.115Z,18.02
2022-07-29T03:45:46.104Z,18.06
2022-07-29T03:46:46.197Z,18.02
2022-07-29T03:47:51.199Z,18.09
2022-07-29T03:48:47.134Z,17.97
2022-07-29T03:49:46.058Z,18.01
2022-07-29T03:50:46.073Z,18.02
2022-07-29T03:51:46.040Z,17.94
2022-07-29T03:52:46.103Z,17.99
2022-07-29T03:53:46.036Z,18.05
2022-07-29T03:54:46.010Z,17.99
2022-07-29T03:55:46.007Z,18.03
2022-07-29T03:56:46.031Z,17.99
2022-07-29T03:57:45.973Z,18.01
2022-07-29T03:58:45.969Z,17.96
2022-07-29T03:59:45.957Z,18.02
2022-07-29T04:00:45.950Z,18.01
2022-07-29T04:01:46.004Z,17.97
2022-07-29T04:02:45.969Z,17.96
2022-07-29T04:03:45.981Z,17.94
2022-07-29T04:04:45.906Z,17.99
2022-07-29T04:05:45.919Z,18.01
2022-07-29T04:06:45.879Z,17.93
2022-07-29T04:07:45.874Z,17.97
2022-07-29T04:08:45.863Z,17.97
2022-07-29T04:09:45.851Z,17.99
2022-07-29T04:10:45.868Z,18.02
2022-07-29T04:12:01.857Z,17.99
2022-07-29T04:12:46.812Z,18.01
2022-07-29T04:13:45.821Z,17.90
2022-07-29T04:14:45.823Z,17.93
2022-07-29T04:15:45.817Z,17.91
2022-07-29T04:16:45.774Z,17.97
2022-07-29T04:17:45.761Z,17.93
2022-07-29T04:18:45.767Z,17.91
2022-07-29T04:19:45.768Z,17.96
2022-07-29T04:20:45.735Z,17.94
2022-07-29T04:21:45.718Z,17.87
2022-07-29T04:22:45.709Z,17.94
2022-07-29T04:23:52.813Z,17.91
2022-07-29T04:24:46.719Z,17.93
2022-07-29T04:25:45.679Z,17.84
2022-07-29T04:26:45.660Z,17.88
2022-07-29T04:27:45.662Z,17.88
2022-07-29T04:28:45.640Z,17.91
2022-07-29T04:29:56.736Z,17.91
2022-07-29T04:30:46.713Z,17.84
2022-07-29T04:31:45.641Z,17.86
2022-07-29T04:32:45.597Z,17.90
2022-07-29T04:33:45.588Z,17.86
2022-07-29T04:34:45.576Z,17.91
2022-07-29T04:35:49.938Z,17.86
2022-07-29T04:36:46.557Z,17.86
2022-07-29T04:37:45.549Z,17.88
2022-07-29T04:38:45.527Z,17.93
2022-07-29T04:39:45.538Z,17.90
2022-07-29T04:40:45.598Z,17.91
2022-07-29T04:41:45.503Z,17.86
2022-07-29T04:42:46.731Z,17.93
2022-07-29T04:43:45.517Z,17.87
2022-07-29T04:44:45.472Z,17.87
2022-07-29T04:45:45.456Z,17.90
2022-07-29T04:46:45.502Z,17.87
2022-07-29T04:47:45.441Z,17.91
2022-07-29T04:48:45.518Z,17.88
2022-07-29T04:49:45.412Z,17.93
2022-07-29T04:50:45.405Z,17.88
2022-07-29T04:51:45.395Z,17.86
2022-07-29T04:52:45.391Z,17.94
2022-07-29T04:53:45.418Z,17.87
2022-07-29T04:54:45.359Z,17.90
2022-07-29T04:55:45.341Z,17.88
2022-07-29T04:56:45.329Z,17.91
2022-07-29T04:57:45.329Z,17.88
2022-07-29T04:58:45.310Z,17.88
2022-07-29T04:59:45.338Z,17.88
2022-07-29T05:00:45.291Z,17.84
2022-07-29T05:01:45.391Z,17.91
2022-07-29T05:02:45.346Z,17.94
2022-07-29T05:03:45.264Z,17.97
2022-07-29T05:04:45.292Z,17.94
2022-07-29T05:05:45.231Z,17.94
2022-07-29T05:06:45.225Z,17.88
2022-07-29T05:07:45.215Z,17.90
2022-07-29T05:08:45.203Z,17.97
2022-07-29T05:09:45.199Z,17.93
2022-07-29T05:10:45.214Z,17.94
2022-07-29T05:11:45.173Z,17.99
2022-07-29T05:12:45.156Z,17.94
2022-07-29T05:13:46.903Z,17.94
2022-07-29T05:14:45.177Z,18.01
2022-07-29T05:15:45.175Z,17.96
2022-07-29T05:16:45.126Z,17.94
2022-07-29T05:17:45.112Z,17.96
2022-07-29T05:18:45.091Z,17.97
2022-07-29T05:19:45.116Z,18.01
2022-07-29T05:20:45.081Z,18.01
2022-07-29T05:21:45.067Z,18.05
2022-07-29T05:22:45.054Z,18.03
2022-07-29T05:23:45.039Z,17.99
2022-07-29T05:24:45.059Z,18.09
2022-07-29T05:25:45.100Z,18.02
2022-07-29T05:26:45.018Z,18.06
2022-07-29T05:27:45.003Z,18.11
2022-07-29T05:28:44.986Z,18.05
2022-07-29T05:29:45.960Z,18.15
2022-07-29T05:30:45.036Z,18.12
2022-07-29T05:31:44.955Z,18.20
2022-07-29T05:32:44.943Z,18.12
2022-07-29T05:33:44.938Z,18.11
2022-07-29T05:34:50.321Z,18.13
2022-07-29T05:35:45.917Z,18.17
2022-07-29T05:36:44.901Z,18.17
2022-07-29T05:37:44.930Z,18.24
2022-07-29T05:38:44.879Z,18.20
2022-07-29T05:39:48.238Z,18.26
2022-07-29T05:40:44.854Z,18.26
2022-07-29T05:41:47.688Z,18.26
2022-07-29T05:42:47.843Z,18.24
2022-07-29T05:43:44.826Z,18.27
2022-07-29T05:44:44.815Z,18.27
2022-07-29T05:45:49.808Z,18.31
2022-07-29T05:46:45.882Z,18.34
2022-07-29T05:47:44.813Z,18.33
2022-07-29T05:48:44.842Z,18.39
2022-07-29T05:49:44.766Z,18.28
2022-07-29T05:50:44.768Z,18.34
2022-07-29T05:51:44.766Z,18.28
2022-07-29T05:52:44.724Z,18.33
2022-07-29T05:53:44.736Z,18.39
2022-07-29T05:54:44.707Z,18.41
2022-07-29T05:55:44.720Z,18.39
2022-07-29T05:56:44.679Z,18.46
2022-07-29T05:57:44.678Z,18.48
2022-07-29T05:58:44.660Z,18.42
2022-07-29T05:59:44.648Z,18.42
2022-07-29T06:00:44.679Z,18.42
2022-07-29T06:01:44.686Z,18.52
2022-07-29T06:02:44.619Z,18.51
2022-07-29T06:03:44.608Z,18.49
2022-07-29T06:04:44.690Z,18.58
2022-07-29T06:05:44.629Z,18.54
2022-07-29T06:06:44.577Z,18.54
2022-07-29T06:07:50.156Z,18.64
2022-07-29T06:08:45.585Z,18.66
2022-07-29T06:09:44.548Z,18.63
2022-07-29T06:10:44.532Z,18.63
2022-07-29T06:11:44.537Z,18.67
2022-07-29T06:12:44.513Z,18.78
2022-07-29T06:13:44.531Z,18.74
2022-07-29T06:14:44.491Z,18.81
2022-07-29T06:15:44.531Z,18.81
2022-07-29T06:16:44.507Z,18.79
2022-07-29T06:17:59.018Z,18.82
2022-07-29T06:18:45.473Z,18.93
2022-07-29T06:19:44.439Z,18.88
2022-07-29T06:20:44.423Z,18.82
2022-07-29T06:21:44.421Z,18.85
2022-07-29T06:22:44.432Z,18.89
2022-07-29T06:23:44.393Z,18.82
2022-07-29T06:24:44.383Z,18.85
2022-07-29T06:25:44.362Z,18.96
2022-07-29T06:26:44.365Z,18.98
2022-07-29T06:27:44.371Z,18.96
2022-07-29T06:28:44.338Z,18.97
2022-07-29T06:29:44.325Z,19.08
2022-07-29T06:30:44.403Z,19.05
2022-07-29T06:31:44.321Z,19.01
2022-07-29T06:32:44.326Z,19.16
2022-07-29T06:33:44.281Z,19.15
2022-07-29T06:34:44.271Z,19.22
2022-07-29T06:35:53.240Z,19.26
2022-07-29T06:36:45.254Z,19.23
2022-07-29T06:37:44.272Z,19.35
2022-07-29T06:38:49.530Z,19.19
2022-07-29T06:39:45.212Z,19.35
2022-07-29T06:40:44.208Z,19.37
2022-07-29T06:41:44.198Z,19.35
2022-07-29T06:42:44.190Z,19.44
2022-07-29T06:43:50.474Z,19.49
2022-07-29T06:44:45.164Z,19.42
2022-07-29T06:45:44.185Z,19.45
2022-07-29T06:46:44.169Z,19.54
2022-07-29T06:47:44.136Z,19.53
2022-07-29T06:48:44.183Z,19.54
2022-07-29T06:49:44.098Z,19.57
2022-07-29T06:50:44.095Z,19.64
2022-07-29T06:51:44.117Z,19.64
2022-07-29T06:52:44.074Z,19.68
2022-07-29T06:54:00.263Z,19.68
2022-07-29T06:54:45.045Z,19.62
2022-07-29T06:55:44.069Z,19.75
2022-07-29T06:56:44.039Z,19.74
2022-07-29T06:57:44.017Z,19.72
2022-07-29T06:58:44.005Z,19.75
2022-07-29T06:59:43.996Z,19.79
2022-07-29T07:00:44.069Z,19.89
2022-07-29T07:01:44.071Z,19.92
2022-07-29T07:02:44.067Z,19.90
2022-07-29T07:03:43.954Z,20.02
2022-07-29T07:04:43.978Z,19.99
2022-07-29T07:05:43.927Z,20.05
2022-07-29T07:06:43.924Z,20.07
2022-07-29T07:07:43.916Z,20.14
2022-07-29T07:08:43.926Z,20.09
2022-07-29T07:09:43.896Z,20.15
2022-07-29T07:10:43.884Z,20.15
2022-07-29T07:11:43.872Z,20.12
2022-07-29T07:12:43.898Z,20.22
2022-07-29T07:13:43.843Z,20.19
2022-07-29T07:14:43.842Z,20.27
2022-07-29T07:15:43.835Z,20.32
2022-07-29T07:16:43.864Z,20.37
2022-07-29T07:17:43.807Z,20.37
2022-07-29T07:18:43.789Z,20.30
2022-07-29T07:19:43.792Z,20.36
2022-07-29T07:20:43.788Z,20.34
2022-07-29T07:21:43.796Z,20.48
2022-07-29T07:22:43.747Z,20.44
2022-07-29T07:23:43.769Z,20.41
2022-07-29T07:24:43.729Z,20.52
2022-07-29T07:25:43.714Z,20.49
2022-07-29T07:26:43.707Z,20.55
2022-07-29T07:27:43.698Z,20.61
2022-07-29T07:28:43.717Z,20.64
2022-07-29T07:29:44.143Z,20.64
2022-07-29T07:30:43.657Z,20.74
2022-07-29T07:31:43.723Z,20.79
2022-07-29T07:32:43.668Z,20.75
2022-07-29T07:33:43.636Z,20.82
2022-07-29T07:34:43.613Z,20.90
2022-07-29T07:35:43.617Z,20.83
2022-07-29T07:36:43.750Z,21.01
2022-07-29T07:37:43.593Z,20.98
2022-07-29T07:38:43.580Z,21.00
2022-07-29T07:39:43.566Z,21.13
2022-07-29T07:40:43.560Z,21.05
2022-07-29T07:41:43.561Z,21.07
2022-07-29T07:42:43.560Z,21.19
2022-07-29T07:43:43.524Z,21.18
2022-07-29T07:45:11.709Z,21.23
2022-07-29T07:45:44.578Z,21.28
2022-07-29T07:46:43.492Z,21.30
2022-07-29T07:47:43.511Z,21.38
2022-07-29T07:48:43.589Z,21.41
2022-07-29T07:49:43.461Z,21.44
2022-07-29T07:50:43.443Z,21.55
2022-07-29T07:51:43.445Z,21.55
2022-07-29T07:52:44.462Z,21.63
2022-07-29T07:53:43.418Z,21.71
2022-07-29T07:54:43.410Z,21.73
2022-07-29T07:56:12.840Z,21.77
2022-07-29T07:56:44.380Z,21.80
2022-07-29T07:57:43.366Z,21.91
2022-07-29T07:58:43.362Z,21.84
2022-07-29T07:59:43.376Z,21.94
2022-07-29T08:00:43.371Z,22.00
2022-07-29T08:01:49.970Z,22.04
2022-07-29T08:02:44.369Z,22.01
2022-07-29T08:03:43.306Z,22.18
2022-07-29T08:04:43.336Z,22.22
2022-07-29T08:05:43.289Z,22.28
2022-07-29T08:06:43.277Z,22.28
2022-07-29T08:07:43.267Z,22.40
2022-07-29T08:08:43.252Z,22.41
2022-07-29T08:09:43.278Z,22.53
2022-07-29T08:10:43.225Z,22.56
2022-07-29T08:11:51.544Z,22.59
2022-07-29T08:12:44.208Z,22.71
2022-07-29T08:13:43.199Z,22.67
2022-07-29T08:14:43.209Z,22.86
2022-07-29T08:15:43.181Z,22.78
2022-07-29T08:16:43.224Z,22.89
2022-07-29T08:17:43.155Z,22.96
2022-07-29T08:18:43.183Z,23.06
2022-07-29T08:19:50.175Z,23.14
2022-07-29T08:20:43.123Z,23.21
2022-07-29T08:21:43.116Z,23.23
2022-07-29T08:22:43.110Z,23.31
2022-07-29T08:23:46.427Z,23.34
2022-07-29T08:24:44.121Z,23.46
2022-07-29T08:25:43.075Z,23.46
2022-07-29T08:26:43.068Z,23.59
2022-07-29T08:27:44.207Z,23.63
2022-07-29T08:28:43.053Z,23.64
2022-07-29T08:29:43.055Z,23.73
2022-07-29T08:30:43.013Z,23.73
2022-07-29T08:31:43.072Z,23.88
2022-07-29T08:32:53.646Z,23.88
2022-07-29T08:33:44.044Z,24.03
2022-07-29T08:34:43.008Z,23.98
2022-07-29T08:35:43.003Z,24.07
2022-07-29T08:36:42.952Z,24.21
2022-07-29T08:37:43.015Z,24.26
2022-07-29T08:38:42.977Z,24.21
2022-07-29T08:39:42.971Z,24.37
2022-07-29T08:40:42.961Z,24.45
2022-07-29T08:41:56.901Z,24.55
2022-07-29T08:42:43.890Z,24.53
2022-07-29T08:43:42.906Z,24.53
2022-07-29T08:44:42.869Z,24.74
2022-07-29T08:45:47.145Z,24.68
2022-07-29T08:46:43.882Z,24.75
2022-07-29T08:47:42.879Z,24.79
2022-07-29T08:48:42.898Z,24.90
2022-07-29T08:49:42.831Z,24.91
2022-07-29T08:50:42.837Z,25.04
2022-07-29T08:51:49.618Z,25.09
2022-07-29T08:52:43.789Z,25.18
2022-07-29T08:53:42.788Z,25.22
2022-07-29T08:54:42.810Z,25.31
2022-07-29T08:55:42.751Z,25.34
2022-07-29T08:56:42.740Z,25.49
2022-07-29T08:57:43.444Z,25.51
2022-07-29T08:58:44.244Z,25.52
2022-07-29T08:59:43.721Z,25.61
2022-07-29T09:00:42.728Z,25.77
2022-07-29T09:01:45.055Z,25.73
2022-07-29T09:02:42.674Z,25.85
2022-07-29T09:03:42.752Z,25.83
2022-07-29T09:04:42.657Z,25.89
2022-07-29T09:05:47.493Z,25.93
2022-07-29T09:06:43.635Z,26.05
2022-07-29T09:07:42.647Z,26.11
2022-07-29T09:08:42.647Z,26.21
2022-07-29T09:09:42.653Z,26.31
2022-07-29T09:10:42.598Z,26.31
2022-07-29T09:11:42.587Z,26.42
2022-07-29T09:12:42.622Z,26.51
2022-07-29T09:13:42.557Z,26.53
2022-07-29T09:14:42.564Z,26.56
2022-07-29T09:15:42.582Z,26.63
2022-07-29T09:16:59.606Z,26.68
2022-07-29T09:17:43.636Z,26.86
2022-07-29T09:18:42.507Z,26.75
2022-07-29T09:19:45.341Z,26.82
2022-07-29T09:20:42.500Z,27.01
2022-07-29T09:21:42.540Z,27.05
2022-07-29T09:22:42.515Z,27.08
2022-07-29T09:23:42.478Z,27.19
2022-07-29T09:24:42.482Z,27.31
2022-07-29T09:25:42.458Z,27.32
2022-07-29T09:26:42.488Z,27.41
2022-07-29T09:27:42.443Z,27.54
2022-07-29T09:28:42.412Z,27.63
2022-07-29T09:29:42.450Z,27.79
2022-07-29T09:30:42.383Z,27.76
2022-07-29T09:31:42.446Z,27.91
2022-07-29T09:32:42.396Z,28.03
2022-07-29T09:33:42.360Z,28.13
2022-07-29T09:34:42.342Z,28.24
2022-07-29T09:35:42.327Z,28.34
2022-07-29T09:36:43.323Z,28.46
2022-07-29T09:37:42.352Z,28.54
2022-07-29T09:38:42.295Z,28.66
2022-07-29T09:39:42.303Z,28.69
2022-07-29T09:40:42.291Z,28.84
2022-07-29T09:41:42.296Z,28.83
2022-07-29T09:42:42.268Z,28.84
2022-07-29T09:43:42.287Z,28.87
2022-07-29T09:44:42.244Z,28.98
2022-07-29T09:45:42.226Z,28.90
2022-07-29T09:46:42.271Z,28.98
2022-07-29T09:47:42.201Z,29.04
2022-07-29T09:48:42.299Z,28.96
2022-07-29T09:49:42.181Z,29.02
2022-07-29T09:50:42.218Z,29.06
2022-07-29T09:51:42.171Z,29.02
2022-07-29T09:52:42.191Z,29.04
2022-07-29T09:53:42.187Z,29.02
2022-07-29T09:54:42.139Z,29.07
2022-07-29T09:55:42.152Z,29.10
2022-07-29T09:56:42.111Z,29.00
2022-07-29T09:57:42.099Z,29.09
2022-07-29T09:58:42.096Z,29.07
2022-07-29T09:59:49.924Z,29.09
2022-07-29T10:00:43.196Z,29.10
2022-07-29T10:01:42.060Z,29.06
2022-07-29T10:02:42.043Z,29.04
2022-07-29T10:03:42.119Z,29.07
2022-07-29T10:04:42.047Z,29.04
2022-07-29T10:05:42.076Z,29.04
2022-07-29T10:06:42.043Z,29.10
2022-07-29T10:07:42.046Z,29.03
2022-07-29T10:08:41.989Z,29.03
2022-07-29T10:09:42.020Z,29.04
2022-07-29T10:10:41.988Z,29.04
2022-07-29T10:11:49.279Z,29.10
2022-07-29T10:12:42.937Z,29.19
2022-07-29T10:13:41.968Z,29.33
2022-07-29T10:14:41.985Z,29.41
2022-07-29T10:15:42.087Z,29.54
2022-07-29T10:16:42.013Z,29.59
2022-07-29T10:17:41.923Z,29.81
2022-07-29T10:18:41.879Z,29.91
2022-07-29T10:19:41.902Z,30.07
2022-07-29T10:20:41.886Z,30.17
2022-07-29T10:21:41.862Z,30.21
2022-07-29T10:22:53.039Z,30.36
2022-07-29T10:23:46.322Z,30.53
2022-07-29T10:24:41.812Z,30.71
2022-07-29T10:25:45.986Z,30.86
2022-07-29T10:26:41.830Z,30.95
2022-07-29T10:27:41.806Z,31.05
2022-07-29T10:28:41.788Z,31.24
2022-07-29T10:29:41.775Z,31.39
2022-07-29T10:30:41.750Z,31.51
2022-07-29T10:31:41.935Z,31.60
2022-07-29T10:32:41.731Z,31.68
2022-07-29T10:33:41.728Z,31.71
2022-07-29T10:34:41.721Z,31.87
2022-07-29T10:35:41.743Z,31.94
2022-07-29T10:36:41.721Z,32.05
2022-07-29T10:37:45.664Z,32.24
2022-07-29T10:38:45.633Z,32.23
2022-07-29T10:39:45.211Z,32.28
2022-07-29T10:40:43.764Z,32.42
2022-07-29T10:41:43.827Z,32.31
2022-07-29T10:42:41.625Z,32.46
2022-07-29T10:43:42.335Z,32.33
2022-07-29T10:44:41.661Z,32.50
2022-07-29T10:45:41.607Z,32.35
2022-07-29T10:46:41.630Z,32.41
2022-07-29T10:47:41.577Z,32.28
2022-07-29T10:48:41.571Z,32.32
2022-07-29T10:49:41.624Z,32.24
2022-07-29T10:50:41.597Z,32.23
2022-07-29T10:51:41.535Z,32.35
2022-07-29T10:52:41.528Z,32.31
2022-07-29T10:53:41.517Z,32.23
2022-07-29T10:54:42.541Z,32.17
2022-07-29T10:55:43.431Z,32.09
2022-07-29T10:56:41.548Z,32.14
2022-07-29T10:58:42.494Z,32.04
2022-07-29T10:59:42.462Z,32.06
2022-07-29T11:00:41.445Z,32.08
2022-07-29T11:01:41.514Z,32.04
2022-07-29T11:02:43.784Z,32.02
2022-07-29T11:03:41.485Z,32.01
2022-07-29T11:04:42.427Z,32.02
2022-07-29T11:05:41.404Z,31.98
2022-07-29T11:06:42.831Z,31.94
2022-07-29T11:07:47.802Z,31.95
2022-07-29T11:08:42.379Z,31.95
2022-07-29T11:09:41.353Z,31.94
2022-07-29T11:10:41.341Z,31.89
2022-07-29T11:11:41.325Z,31.79
2022-07-29T11:12:41.315Z,31.78
2022-07-29T11:13:41.479Z,31.81
2022-07-29T11:14:41.301Z,31.84
2022-07-29T11:15:41.294Z,31.74
2022-07-29T11:16:41.290Z,31.78
2022-07-29T11:17:51.978Z,31.70
2022-07-29T11:18:42.385Z,31.71
2022-07-29T11:19:42.651Z,31.74
2022-07-29T11:20:41.236Z,31.67
2022-07-29T11:22:05.482Z,31.67
2022-07-29T11:23:42.717Z,31.74
2022-07-29T11:24:50.225Z,31.70
2022-07-29T11:25:42.360Z,31.68
2022-07-29T11:26:42.197Z,31.70
2022-07-29T11:27:41.195Z,31.74
2022-07-29T11:28:41.148Z,31.79
2022-07-29T11:29:41.158Z,31.75
2022-07-29T11:30:41.149Z,31.71
2022-07-29T11:31:41.139Z,31.70
2022-07-29T11:32:41.113Z,31.81
2022-07-29T11:33:56.171Z,31.75
2022-07-29T11:34:42.125Z,31.86
2022-07-29T11:35:41.127Z,31.78
2022-07-29T11:36:41.069Z,31.81
2022-07-29T11:37:42.479Z,31.91
2022-07-29T11:38:41.650Z,31.90
2022-07-29T11:39:41.109Z,31.86
2022-07-29T11:40:42.579Z,32.02
2022-07-29T11:41:41.042Z,32.02
2022-07-29T11:42:41.733Z,32.04
2022-07-29T11:43:41.006Z,32.09
2022-07-29T11:44:41.019Z,32.17
2022-07-29T11:45:45.462Z,32.24
2022-07-29T11:46:40.979Z,32.24
2022-07-29T11:47:41.042Z,32.31
2022-07-29T11:48:41.023Z,32.39
2022-07-29T11:49:40.968Z,32.42
2022-07-29T11:50:44.344Z,32.48
2022-07-29T11:51:57.835Z,32.43
2022-07-29T11:52:50.101Z,32.43
2022-07-29T11:53:41.932Z,32.60
2022-07-29T11:54:57.503Z,32.61
2022-07-29T11:55:51.316Z,32.72
2022-07-29T11:56:41.875Z,32.76
2022-07-29T11:57:40.865Z,32.80
2022-07-29T11:58:40.910Z,32.90
2022-07-29T11:59:40.846Z,32.95
2022-07-29T12:00:40.838Z,32.99
2022-07-29T12:01:40.813Z,32.99
2022-07-29T12:02:41.144Z,33.14
2022-07-29T12:03:40.851Z,33.20
2022-07-29T12:04:40.778Z,33.36
2022-07-29T12:05:48.562Z,33.33
2022-07-29T12:06:41.770Z,33.39
2022-07-29T12:07:41.126Z,33.54
2022-07-29T12:08:40.760Z,33.51
2022-07-29T12:09:41.667Z,33.55
2022-07-29T12:10:40.722Z,33.64
2022-07-29T12:11:40.750Z,33.70
2022-07-29T12:12:40.699Z,33.66
2022-07-29T12:13:40.707Z,33.79
2022-07-29T12:14:40.692Z,33.76
2022-07-29T12:15:47.160Z,33.88
2022-07-29T12:16:41.731Z,33.95
2022-07-29T12:17:40.662Z,34.01
2022-07-29T12:18:40.646Z,34.03
2022-07-29T12:19:40.638Z,34.11
2022-07-29T12:20:40.614Z,34.11
2022-07-29T12:21:40.778Z,34.23
2022-07-29T12:22:41.598Z,34.30
2022-07-29T12:23:40.591Z,34.34
2022-07-29T12:24:40.575Z,34.40
2022-07-29T12:25:40.776Z,34.47
2022-07-29T12:26:40.638Z,34.50
2022-07-29T12:27:40.732Z,34.48
2022-07-29T12:28:40.613Z,34.56
2022-07-29T12:29:41.964Z,34.62
2022-07-29T12:30:41.687Z,34.59
2022-07-29T12:31:43.278Z,34.82
2022-07-29T12:32:40.538Z,34.75
2022-07-29T12:33:40.510Z,34.91
2022-07-29T12:34:40.493Z,34.91
2022-07-29T12:35:40.461Z,34.87
2022-07-29T12:36:40.457Z,34.85
2022-07-29T12:37:42.532Z,34.85
2022-07-29T12:38:40.457Z,34.92
2022-07-29T12:39:40.456Z,34.97
2022-07-29T12:40:40.413Z,34.99
2022-07-29T12:41:40.444Z,35.07
2022-07-29T12:42:40.442Z,35.14
2022-07-29T12:43:40.422Z,35.13
2022-07-29T12:44:40.379Z,35.12
2022-07-29T12:45:40.368Z,35.17
2022-07-29T12:46:40.425Z,35.17
2022-07-29T12:47:40.352Z,35.23
2022-07-29T12:48:40.442Z,35.17
2022-07-29T12:49:40.322Z,35.23
2022-07-29T12:50:40.319Z,35.23
2022-07-29T12:51:40.307Z,35.31
2022-07-29T12:52:40.289Z,35.31
2022-07-29T12:53:43.400Z,35.32
2022-07-29T12:54:40.273Z,35.32